sensor_id;sensor_type;location;lat;lon;timestamp;P1;durP1;ratioP1;P2;durP2;ratioP2
40012;SDS011;37387;42.672;23.334;2023-04-01T00:00:52;10.4;;;4.4;;
40012;SDS011;37387;42.672;23.334;2023-04-01T00:01:52;9.1;;;4.2;;
40012;SDS011;37387;42.672;23.334;2023-04-01T00:02:52;9.1;;;5.2;;
40012;SDS011;37387;42.672;23.334;2023-04-01T00:03:52;14.9;;;5.4;;
40012;SDS011;37387;42.672;23.334;2023-04-01T00:05:52;10.3;;;5.6;;
40012;SDS011;37387;42.672;23.334;2023-04-01T00:06:52;13.3;;;5.9;;
40012;SDS011;37387;42.672;23.334;2023-04-01T00:07:52;12.0;;;6.2;;
40012;SDS011;37387;42.672;23.334;2023-04-01T00:08:52;15.0;;;7.0;;
40012;SDS011;37387;42.672;23.334;2023-04-01T00:09:52;15.7;;;7.6;;
40012;SDS011;37387;42.672;23.334;2023-04-01T00:10:52;22.0;;;9.7;;
40012;SDS011;37387;42.672;23.334;2023-04-01T00:11:52;20.4;;;9.5;;
40012;SDS011;37387;42.672;23.334;2023-04-01T00:13:52;23.3;;;9.9;;
40012;SDS011;37387;42.672;23.334;2023-04-01T00:14:52;23.3;;;10.0;;
40012;SDS011;37387;42.672;23.334;2023-04-01T00:15:52;23.1;;;10.5;;
40012;SDS011;37387;42.672;23.334;2023-04-01T00:16:52;20.4;;;9.5;;
40012;SDS011;37387;42.672;23.334;2023-04-01T00:17:52;20.4;;;10.4;;
40012;SDS011;37387;42.672;23.334;2023-04-01T00:18:52;24.0;;;10.8;;
40012;SDS011;37387;42.672;23.334;2023-04-01T00:19:53;22.5;;;10.0;;
40012;SDS011;37387;42.672;23.334;2023-04-01T00:20:52;23.4;;;10.5;;
40012;SDS011;37387;42.672;23.334;2023-04-01T00:22:52;26.4;;;10.7;;
40012;SDS011;37387;42.672;23.334;2023-04-01T00:23:52;25.7;;;10.8;;
40012;SDS011;37387;42.672;23.334;2023-04-01T00:24:52;25.7;;;10.2;;
40012;SDS011;37387;42.672;23.334;2023-04-01T00:25:51;21.2;;;10.3;;
40012;SDS011;37387;42.672;23.334;2023-04-01T00:26:51;24.1;;;10.2;;
40012;SDS011;37387;42.672;23.334;2023-04-01T00:27:51;28.6;;;11.0;;
40012;SDS011;37387;42.672;23.334;2023-04-01T00:28:51;23.9;;;11.3;;
40012;SDS011;37387;42.672;23.334;2023-04-01T00:29:51;22.6;;;11.6;;
40012;SDS011;37387;42.672;23.334;2023-04-01T00:30:51;22.6;;;10.8;;
40012;SDS011;37387;42.672;23.334;2023-04-01T00:31:51;23.9;;;10.5;;
40012;SDS011;37387;42.672;23.334;2023-04-01T00:32:51;19.5;;;10.0;;
40012;SDS011;37387;42.672;23.334;2023-04-01T00:33:51;22.7;;;10.1;;
40012;SDS011;37387;42.672;23.334;2023-04-01T00:34:51;24.4;;;11.0;;
40012;SDS011;37387;42.672;23.334;2023-04-01T00:35:51;24.4;;;9.9;;
40012;SDS011;37387;42.672;23.334;2023-04-01T00:36:51;16.5;;;8.9;;
40012;SDS011;37387;42.672;23.334;2023-04-01T00:38:51;22.6;;;9.3;;
40012;SDS011;37387;42.672;23.334;2023-04-01T00:40:56;21.8;;;9.1;;
40012;SDS011;37387;42.672;23.334;2023-04-01T00:41:51;20.2;;;9.5;;
40012;SDS011;37387;42.672;23.334;2023-04-01T00:42:51;20.2;;;9.3;;
40012;SDS011;37387;42.672;23.334;2023-04-01T00:43:51;22.0;;;9.6;;
40012;SDS011;37387;42.672;23.334;2023-04-01T00:44:51;22.0;;;9.3;;
40012;SDS011;37387;42.672;23.334;2023-04-01T00:45:51;18.3;;;9.9;;
40012;SDS011;37387;42.672;23.334;2023-04-01T00:46:51;14.7;;;8.1;;
40012;SDS011;37387;42.672;23.334;2023-04-01T00:47:51;19.8;;;8.9;;
40012;SDS011;37387;42.672;23.334;2023-04-01T00:48:52;19.8;;;9.1;;
40012;SDS011;37387;42.672;23.334;2023-04-01T00:49:51;20.8;;;8.4;;
40012;SDS011;37387;42.672;23.334;2023-04-01T00:50:52;17.0;;;8.5;;
40012;SDS011;37387;42.672;23.334;2023-04-01T00:51:51;17.7;;;8.4;;
40012;SDS011;37387;42.672;23.334;2023-04-01T00:52:51;17.7;;;8.2;;
40012;SDS011;37387;42.672;23.334;2023-04-01T00:53:52;16.9;;;8.7;;
40012;SDS011;37387;42.672;23.334;2023-04-01T00:54:52;16.9;;;7.8;;
40012;SDS011;37387;42.672;23.334;2023-04-01T00:55:53;14.7;;;8.8;;
40012;SDS011;37387;42.672;23.334;2023-04-01T00:56:51;18.4;;;8.6;;
40012;SDS011;37387;42.672;23.334;2023-04-01T00:57:51;16.4;;;7.9;;
40012;SDS011;37387;42.672;23.334;2023-04-01T00:58:51;15.6;;;7.0;;
40012;SDS011;37387;42.672;23.334;2023-04-01T00:59:52;15.6;;;7.8;;
40012;SDS011;37387;42.672;23.334;2023-04-01T01:00:51;16.5;;;7.1;;
40012;SDS011;37387;42.672;23.334;2023-04-01T01:01:51;11.3;;;7.7;;
40012;SDS011;37387;42.672;23.334;2023-04-01T01:02:51;18.3;;;6.7;;
40012;SDS011;37387;42.672;23.334;2023-04-01T01:03:51;15.9;;;7.3;;
40012;SDS011;37387;42.672;23.334;2023-04-01T01:05:55;14.3;;;7.7;;
40012;SDS011;37387;42.672;23.334;2023-04-01T01:06:52;14.3;;;8.0;;
40012;SDS011;37387;42.672;23.334;2023-04-01T01:07:52;19.8;;;8.3;;
40012;SDS011;37387;42.672;23.334;2023-04-01T01:08:55;14.5;;;7.6;;
40012;SDS011;37387;42.672;23.334;2023-04-01T01:09:52;15.8;;;7.1;;
40012;SDS011;37387;42.672;23.334;2023-04-01T01:10:50;17.4;;;7.4;;
40012;SDS011;37387;42.672;23.334;2023-04-01T01:12:51;18.9;;;7.3;;
40012;SDS011;37387;42.672;23.334;2023-04-01T01:13:52;15.8;;;7.2;;
40012;SDS011;37387;42.672;23.334;2023-04-01T01:14:52;15.6;;;6.8;;
40012;SDS011;37387;42.672;23.334;2023-04-01T01:16:51;15.5;;;7.1;;
40012;SDS011;37387;42.672;23.334;2023-04-01T01:17:53;12.2;;;6.0;;
40012;SDS011;37387;42.672;23.334;2023-04-01T01:18:51;12.7;;;6.9;;
40012;SDS011;37387;42.672;23.334;2023-04-01T01:19:54;12.7;;;6.6;;
40012;SDS011;37387;42.672;23.334;2023-04-01T01:20:57;14.1;;;6.7;;
40012;SDS011;37387;42.672;23.334;2023-04-01T01:21:55;13.3;;;6.2;;
40012;SDS011;37387;42.672;23.334;2023-04-01T01:22:52;13.1;;;5.7;;
40012;SDS011;37387;42.672;23.334;2023-04-01T01:23:55;9.7;;;6.7;;
40012;SDS011;37387;42.672;23.334;2023-04-01T01:24:52;11.8;;;6.2;;
40012;SDS011;37387;42.672;23.334;2023-04-01T01:25:52;12.6;;;6.0;;
40012;SDS011;37387;42.672;23.334;2023-04-01T01:27:54;12.9;;;5.9;;
40012;SDS011;37387;42.672;23.334;2023-04-01T01:28:51;15.1;;;6.5;;
40012;SDS011;37387;42.672;23.334;2023-04-01T01:29:58;15.1;;;5.4;;
40012;SDS011;37387;42.672;23.334;2023-04-01T01:30:50;12.6;;;6.2;;
40012;SDS011;37387;42.672;23.334;2023-04-01T01:31:50;10.0;;;5.4;;
40012;SDS011;37387;42.672;23.334;2023-04-01T01:33:54;11.3;;;5.7;;
40012;SDS011;37387;42.672;23.334;2023-04-01T01:34:50;12.3;;;5.4;;
40012;SDS011;37387;42.672;23.334;2023-04-01T01:35:50;12.3;;;5.5;;
40012;SDS011;37387;42.672;23.334;2023-04-01T01:36:50;16.4;;;5.1;;
40012;SDS011;37387;42.672;23.334;2023-04-01T01:37:51;10.3;;;5.4;;
40012;SDS011;37387;42.672;23.334;2023-04-01T01:38:50;11.3;;;5.6;;
40012;SDS011;37387;42.672;23.334;2023-04-01T01:39:52;11.3;;;5.1;;
40012;SDS011;37387;42.672;23.334;2023-04-01T01:40:50;12.3;;;5.7;;
40012;SDS011;37387;42.672;23.334;2023-04-01T01:41:50;9.6;;;5.3;;
40012;SDS011;37387;42.672;23.334;2023-04-01T01:42:50;9.6;;;5.6;;
40012;SDS011;37387;42.672;23.334;2023-04-01T01:43:50;12.5;;;5.3;;
40012;SDS011;37387;42.672;23.334;2023-04-01T01:44:50;12.6;;;5.1;;
40012;SDS011;37387;42.672;23.334;2023-04-01T01:45:50;9.3;;;4.7;;
40012;SDS011;37387;42.672;23.334;2023-04-01T01:46:49;10.1;;;4.5;;
40012;SDS011;37387;42.672;23.334;2023-04-01T01:47:49;10.1;;;5.2;;
40012;SDS011;37387;42.672;23.334;2023-04-01T01:48:49;12.2;;;5.0;;
40012;SDS011;37387;42.672;23.334;2023-04-01T01:49:50;12.2;;;5.5;;
40012;SDS011;37387;42.672;23.334;2023-04-01T01:50:50;12.1;;;5.7;;
40012;SDS011;37387;42.672;23.334;2023-04-01T01:51:49;8.9;;;4.4;;
40012;SDS011;37387;42.672;23.334;2023-04-01T01:53:49;8.5;;;4.3;;
40012;SDS011;37387;42.672;23.334;2023-04-01T01:54:50;8.5;;;5.0;;
40012;SDS011;37387;42.672;23.334;2023-04-01T01:55:49;12.0;;;4.8;;
40012;SDS011;37387;42.672;23.334;2023-04-01T01:56:50;9.2;;;5.2;;
40012;SDS011;37387;42.672;23.334;2023-04-01T01:57:49;10.7;;;4.9;;
40012;SDS011;37387;42.672;23.334;2023-04-01T01:58:50;8.5;;;4.5;;
40012;SDS011;37387;42.672;23.334;2023-04-01T01:59:49;9.4;;;4.7;;
40012;SDS011;37387;42.672;23.334;2023-04-01T02:00:50;9.4;;;4.4;;
40012;SDS011;37387;42.672;23.334;2023-04-01T02:01:50;10.1;;;4.2;;
40012;SDS011;37387;42.672;23.334;2023-04-01T02:02:49;8.5;;;4.3;;
40012;SDS011;37387;42.672;23.334;2023-04-01T02:03:49;7.1;;;3.0;;
40012;SDS011;37387;42.672;23.334;2023-04-01T02:04:49;7.1;;;3.7;;
40012;SDS011;37387;42.672;23.334;2023-04-01T02:06:50;9.6;;;3.2;;
40012;SDS011;37387;42.672;23.334;2023-04-01T02:07:50;8.0;;;3.3;;
40012;SDS011;37387;42.672;23.334;2023-04-01T02:08:50;8.2;;;3.9;;
40012;SDS011;37387;42.672;23.334;2023-04-01T02:09:49;7.8;;;3.4;;
40012;SDS011;37387;42.672;23.334;2023-04-01T02:10:51;7.8;;;3.8;;
40012;SDS011;37387;42.672;23.334;2023-04-01T02:11:49;7.8;;;3.3;;
40012;SDS011;37387;42.672;23.334;2023-04-01T02:12:49;6.4;;;3.5;;
40012;SDS011;37387;42.672;23.334;2023-04-01T02:13:50;6.4;;;3.3;;
40012;SDS011;37387;42.672;23.334;2023-04-01T02:14:50;7.9;;;3.4;;
40012;SDS011;37387;42.672;23.334;2023-04-01T02:15:49;7.9;;;3.7;;
40012;SDS011;37387;42.672;23.334;2023-04-01T02:16:49;6.9;;;3.5;;
40012;SDS011;37387;42.672;23.334;2023-04-01T02:17:49;6.9;;;2.7;;
40012;SDS011;37387;42.672;23.334;2023-04-01T02:18:49;6.0;;;2.9;;
40012;SDS011;37387;42.672;23.334;2023-04-01T02:19:50;6.0;;;2.8;;
40012;SDS011;37387;42.672;23.334;2023-04-01T02:20:49;5.3;;;2.4;;
40012;SDS011;37387;42.672;23.334;2023-04-01T02:21:49;7.1;;;2.9;;
40012;SDS011;37387;42.672;23.334;2023-04-01T02:22:49;7.1;;;3.2;;
40012;SDS011;37387;42.672;23.334;2023-04-01T02:24:49;8.5;;;3.1;;
40012;SDS011;37387;42.672;23.334;2023-04-01T02:25:49;5.6;;;2.8;;
40012;SDS011;37387;42.672;23.334;2023-04-01T02:26:49;5.6;;;3.0;;
40012;SDS011;37387;42.672;23.334;2023-04-01T02:28:49;6.4;;;2.7;;
40012;SDS011;37387;42.672;23.334;2023-04-01T02:29:49;6.8;;;3.1;;
40012;SDS011;37387;42.672;23.334;2023-04-01T02:30:49;6.8;;;2.7;;
40012;SDS011;37387;42.672;23.334;2023-04-01T02:31:49;7.7;;;2.9;;
40012;SDS011;37387;42.672;23.334;2023-04-01T02:32:49;7.7;;;3.0;;
40012;SDS011;37387;42.672;23.334;2023-04-01T02:34:49;5.9;;;2.9;;
40012;SDS011;37387;42.672;23.334;2023-04-01T02:35:49;8.3;;;3.2;;
40012;SDS011;37387;42.672;23.334;2023-04-01T02:36:49;7.3;;;3.3;;
40012;SDS011;37387;42.672;23.334;2023-04-01T02:37:49;5.6;;;2.8;;
40012;SDS011;37387;42.672;23.334;2023-04-01T02:39:49;6.2;;;3.2;;
40012;SDS011;37387;42.672;23.334;2023-04-01T02:40:49;8.6;;;3.1;;
40012;SDS011;37387;42.672;23.334;2023-04-01T02:41:49;5.9;;;3.0;;
40012;SDS011;37387;42.672;23.334;2023-04-01T02:42:49;5.9;;;3.2;;
40012;SDS011;37387;42.672;23.334;2023-04-01T02:44:49;6.5;;;3.8;;
40012;SDS011;37387;42.672;23.334;2023-04-01T02:45:48;9.2;;;3.9;;
40012;SDS011;37387;42.672;23.334;2023-04-01T02:46:49;8.2;;;3.5;;
40012;SDS011;37387;42.672;23.334;2023-04-01T02:47:48;9.9;;;3.6;;
40012;SDS011;37387;42.672;23.334;2023-04-01T02:48:48;8.7;;;3.8;;
40012;SDS011;37387;42.672;23.334;2023-04-01T02:50:48;9.1;;;3.7;;
40012;SDS011;37387;42.672;23.334;2023-04-01T02:51:48;9.1;;;4.2;;
40012;SDS011;37387;42.672;23.334;2023-04-01T02:52:48;13.6;;;3.9;;
40012;SDS011;37387;42.672;23.334;2023-04-01T02:53:48;9.2;;;3.8;;
40012;SDS011;37387;42.672;23.334;2023-04-01T02:54:48;7.4;;;3.7;;
40012;SDS011;37387;42.672;23.334;2023-04-01T02:55:48;8.1;;;4.0;;
40012;SDS011;37387;42.672;23.334;2023-04-01T02:56:48;8.1;;;3.8;;
40012;SDS011;37387;42.672;23.334;2023-04-01T02:57:48;7.7;;;4.1;;
40012;SDS011;37387;42.672;23.334;2023-04-01T02:58:48;9.3;;;4.4;;
40012;SDS011;37387;42.672;23.334;2023-04-01T02:59:48;9.4;;;4.1;;
40012;SDS011;37387;42.672;23.334;2023-04-01T03:00:48;11.3;;;4.8;;
40012;SDS011;37387;42.672;23.334;2023-04-01T03:01:48;9.8;;;4.1;;
40012;SDS011;37387;42.672;23.334;2023-04-01T03:02:48;9.8;;;4.2;;
40012;SDS011;37387;42.672;23.334;2023-04-01T03:03:48;8.6;;;4.6;;
40012;SDS011;37387;42.672;23.334;2023-04-01T03:04:48;10.5;;;5.3;;
40012;SDS011;37387;42.672;23.334;2023-04-01T03:05:48;10.5;;;4.7;;
40012;SDS011;37387;42.672;23.334;2023-04-01T03:06:48;11.2;;;4.8;;
40012;SDS011;37387;42.672;23.334;2023-04-01T03:07:49;9.9;;;5.0;;
40012;SDS011;37387;42.672;23.334;2023-04-01T03:09:48;12.7;;;4.6;;
40012;SDS011;37387;42.672;23.334;2023-04-01T03:11:48;10.2;;;4.9;;
40012;SDS011;37387;42.672;23.334;2023-04-01T03:12:48;11.6;;;5.0;;
40012;SDS011;37387;42.672;23.334;2023-04-01T03:13:48;11.6;;;4.9;;
40012;SDS011;37387;42.672;23.334;2023-04-01T03:14:48;9.7;;;4.7;;
40012;SDS011;37387;42.672;23.334;2023-04-01T03:15:48;11.4;;;4.9;;
40012;SDS011;37387;42.672;23.334;2023-04-01T03:16:48;11.4;;;5.4;;
40012;SDS011;37387;42.672;23.334;2023-04-01T03:17:48;11.4;;;5.2;;
40012;SDS011;37387;42.672;23.334;2023-04-01T03:18:48;12.7;;;6.0;;
40012;SDS011;37387;42.672;23.334;2023-04-01T03:19:48;12.5;;;5.9;;
40012;SDS011;37387;42.672;23.334;2023-04-01T03:20:48;10.5;;;5.0;;
40012;SDS011;37387;42.672;23.334;2023-04-01T03:21:48;10.5;;;5.8;;
40012;SDS011;37387;42.672;23.334;2023-04-01T03:22:48;12.5;;;5.9;;
40012;SDS011;37387;42.672;23.334;2023-04-01T03:23:48;12.5;;;5.5;;
40012;SDS011;37387;42.672;23.334;2023-04-01T03:24:48;13.3;;;5.3;;
40012;SDS011;37387;42.672;23.334;2023-04-01T03:26:48;10.5;;;5.2;;
40012;SDS011;37387;42.672;23.334;2023-04-01T03:27:48;11.0;;;5.6;;
40012;SDS011;37387;42.672;23.334;2023-04-01T03:28:48;11.0;;;5.8;;
40012;SDS011;37387;42.672;23.334;2023-04-01T03:29:48;14.2;;;6.1;;
40012;SDS011;37387;42.672;23.334;2023-04-01T03:30:48;15.1;;;5.8;;
40012;SDS011;37387;42.672;23.334;2023-04-01T03:31:48;15.1;;;5.4;;
40012;SDS011;37387;42.672;23.334;2023-04-01T03:32:48;10.7;;;5.2;;
40012;SDS011;37387;42.672;23.334;2023-04-01T03:33:48;10.8;;;6.0;;
40012;SDS011;37387;42.672;23.334;2023-04-01T03:34:48;14.6;;;6.4;;
40012;SDS011;37387;42.672;23.334;2023-04-01T03:35:48;13.3;;;6.3;;
40012;SDS011;37387;42.672;23.334;2023-04-01T03:36:48;11.7;;;5.5;;
40012;SDS011;37387;42.672;23.334;2023-04-01T03:37:48;12.4;;;5.8;;
40012;SDS011;37387;42.672;23.334;2023-04-01T03:38:48;11.4;;;5.6;;
40012;SDS011;37387;42.672;23.334;2023-04-01T03:39:48;15.1;;;5.8;;
40012;SDS011;37387;42.672;23.334;2023-04-01T03:40:48;15.1;;;6.3;;
40012;SDS011;37387;42.672;23.334;2023-04-01T03:41:48;10.1;;;6.0;;
40012;SDS011;37387;42.672;23.334;2023-04-01T03:43:48;18.3;;;6.5;;
40012;SDS011;37387;42.672;23.334;2023-04-01T03:44:48;12.0;;;6.0;;
40012;SDS011;37387;42.672;23.334;2023-04-01T03:45:48;12.0;;;6.4;;
40012;SDS011;37387;42.672;23.334;2023-04-01T03:46:48;11.1;;;6.3;;
40012;SDS011;37387;42.672;23.334;2023-04-01T03:47:48;16.2;;;7.1;;
40012;SDS011;37387;42.672;23.334;2023-04-01T03:48:48;14.7;;;6.6;;
40012;SDS011;37387;42.672;23.334;2023-04-01T03:49:48;14.7;;;6.4;;
40012;SDS011;37387;42.672;23.334;2023-04-01T03:51:48;12.0;;;6.3;;
40012;SDS011;37387;42.672;23.334;2023-04-01T03:52:48;11.5;;;5.7;;
40012;SDS011;37387;42.672;23.334;2023-04-01T03:53:48;11.5;;;5.4;;
40012;SDS011;37387;42.672;23.334;2023-04-01T03:54:48;13.0;;;5.8;;
40012;SDS011;37387;42.672;23.334;2023-04-01T03:55:48;16.5;;;5.2;;
40012;SDS011;37387;42.672;23.334;2023-04-01T03:56:48;10.3;;;4.8;;
40012;SDS011;37387;42.672;23.334;2023-04-01T03:57:48;11.6;;;5.7;;
40012;SDS011;37387;42.672;23.334;2023-04-01T03:58:48;11.3;;;5.4;;
40012;SDS011;37387;42.672;23.334;2023-04-01T03:59:47;11.3;;;6.0;;
40012;SDS011;37387;42.672;23.334;2023-04-01T04:00:47;11.4;;;4.6;;
40012;SDS011;37387;42.672;23.334;2023-04-01T04:01:47;11.4;;;5.6;;
40012;SDS011;37387;42.672;23.334;2023-04-01T04:02:47;13.5;;;4.8;;
40012;SDS011;37387;42.672;23.334;2023-04-01T04:03:48;9.4;;;4.5;;
40012;SDS011;37387;42.672;23.334;2023-04-01T04:05:48;10.9;;;4.8;;
40012;SDS011;37387;42.672;23.334;2023-04-01T04:06:47;11.0;;;5.2;;
40012;SDS011;37387;42.672;23.334;2023-04-01T04:07:47;10.9;;;4.8;;
40012;SDS011;37387;42.672;23.334;2023-04-01T04:08:47;12.0;;;5.0;;
40012;SDS011;37387;42.672;23.334;2023-04-01T04:09:47;12.0;;;4.8;;
40012;SDS011;37387;42.672;23.334;2023-04-01T04:10:47;12.4;;;5.7;;
40012;SDS011;37387;42.672;23.334;2023-04-01T04:11:48;9.4;;;4.2;;
40012;SDS011;37387;42.672;23.334;2023-04-01T04:12:48;11.6;;;4.9;;
40012;SDS011;37387;42.672;23.334;2023-04-01T04:13:47;11.6;;;5.5;;
40012;SDS011;37387;42.672;23.334;2023-04-01T04:14:47;14.2;;;5.3;;
40012;SDS011;37387;42.672;23.334;2023-04-01T04:15:47;13.1;;;5.4;;
40012;SDS011;37387;42.672;23.334;2023-04-01T04:16:47;11.9;;;5.7;;
40012;SDS011;37387;42.672;23.334;2023-04-01T04:17:47;11.9;;;5.9;;
40012;SDS011;37387;42.672;23.334;2023-04-01T04:18:47;11.8;;;5.8;;
40012;SDS011;37387;42.672;23.334;2023-04-01T04:19:47;13.5;;;5.7;;
40012;SDS011;37387;42.672;23.334;2023-04-01T04:20:47;12.2;;;5.8;;
40012;SDS011;37387;42.672;23.334;2023-04-01T04:21:47;11.1;;;5.9;;
40012;SDS011;37387;42.672;23.334;2023-04-01T04:22:47;13.0;;;6.4;;
40012;SDS011;37387;42.672;23.334;2023-04-01T04:23:47;15.5;;;6.0;;
40012;SDS011;37387;42.672;23.334;2023-04-01T04:24:47;10.2;;;5.7;;
40012;SDS011;37387;42.672;23.334;2023-04-01T04:25:55;8.2;;;4.2;;
40012;SDS011;37387;42.672;23.334;2023-04-01T04:26:47;12.8;;;4.5;;
40012;SDS011;37387;42.672;23.334;2023-04-01T04:27:47;12.8;;;4.4;;
40012;SDS011;37387;42.672;23.334;2023-04-01T04:28:47;8.5;;;4.8;;
40012;SDS011;37387;42.672;23.334;2023-04-01T04:29:47;9.0;;;4.6;;
40012;SDS011;37387;42.672;23.334;2023-04-01T04:30:47;11.1;;;4.9;;
40012;SDS011;37387;42.672;23.334;2023-04-01T04:31:47;17.4;;;6.0;;
40012;SDS011;37387;42.672;23.334;2023-04-01T04:32:47;17.4;;;4.6;;
40012;SDS011;37387;42.672;23.334;2023-04-01T04:33:47;10.3;;;4.7;;
40012;SDS011;37387;42.672;23.334;2023-04-01T04:34:47;9.5;;;4.8;;
40012;SDS011;37387;42.672;23.334;2023-04-01T04:35:47;9.9;;;4.5;;
40012;SDS011;37387;42.672;23.334;2023-04-01T04:36:47;9.5;;;4.3;;
40012;SDS011;37387;42.672;23.334;2023-04-01T04:37:47;9.5;;;4.2;;
40012;SDS011;37387;42.672;23.334;2023-04-01T04:38:47;8.5;;;5.2;;
40012;SDS011;37387;42.672;23.334;2023-04-01T04:39:47;13.2;;;4.7;;
40012;SDS011;37387;42.672;23.334;2023-04-01T04:40:47;8.9;;;4.4;;
40012;SDS011;37387;42.672;23.334;2023-04-01T04:41:47;12.3;;;5.5;;
40012;SDS011;37387;42.672;23.334;2023-04-01T04:42:47;12.3;;;4.7;;
40012;SDS011;37387;42.672;23.334;2023-04-01T04:44:47;13.5;;;4.5;;
40012;SDS011;37387;42.672;23.334;2023-04-01T04:45:47;12.3;;;5.3;;
40012;SDS011;37387;42.672;23.334;2023-04-01T04:46:47;10.9;;;4.7;;
40012;SDS011;37387;42.672;23.334;2023-04-01T04:47:47;14.4;;;4.6;;
40012;SDS011;37387;42.672;23.334;2023-04-01T04:48:47;9.1;;;4.7;;
40012;SDS011;37387;42.672;23.334;2023-04-01T04:49:47;11.1;;;4.6;;
40012;SDS011;37387;42.672;23.334;2023-04-01T04:50:47;11.7;;;5.5;;
40012;SDS011;37387;42.672;23.334;2023-04-01T04:51:47;15.5;;;5.4;;
40012;SDS011;37387;42.672;23.334;2023-04-01T04:52:47;15.5;;;5.8;;
40012;SDS011;37387;42.672;23.334;2023-04-01T04:53:47;12.4;;;6.0;;
40012;SDS011;37387;42.672;23.334;2023-04-01T04:54:47;12.4;;;5.2;;
40012;SDS011;37387;42.672;23.334;2023-04-01T04:55:47;11.6;;;5.3;;
40012;SDS011;37387;42.672;23.334;2023-04-01T04:58:47;11.4;;;5.4;;
40012;SDS011;37387;42.672;23.334;2023-04-01T04:59:47;7.7;;;5.0;;
40012;SDS011;37387;42.672;23.334;2023-04-01T05:00:47;11.4;;;5.3;;
40012;SDS011;37387;42.672;23.334;2023-04-01T05:01:47;10.7;;;5.6;;
40012;SDS011;37387;42.672;23.334;2023-04-01T05:02:47;10.6;;;5.0;;
40012;SDS011;37387;42.672;23.334;2023-04-01T05:03:47;10.6;;;5.3;;
40012;SDS011;37387;42.672;23.334;2023-04-01T05:04:47;8.8;;;5.2;;
40012;SDS011;37387;42.672;23.334;2023-04-01T05:05:48;9.9;;;5.1;;
40012;SDS011;37387;42.672;23.334;2023-04-01T05:06:47;11.8;;;5.9;;
40012;SDS011;37387;42.672;23.334;2023-04-01T05:07:47;11.9;;;5.1;;
40012;SDS011;37387;42.672;23.334;2023-04-01T05:08:47;11.9;;;5.5;;
40012;SDS011;37387;42.672;23.334;2023-04-01T05:09:47;15.1;;;5.6;;
40012;SDS011;37387;42.672;23.334;2023-04-01T05:10:47;15.1;;;5.2;;
40012;SDS011;37387;42.672;23.334;2023-04-01T05:11:47;10.7;;;5.6;;
40012;SDS011;37387;42.672;23.334;2023-04-01T05:12:46;37.6;;;20.1;;
40012;SDS011;37387;42.672;23.334;2023-04-01T05:13:46;12.3;;;6.1;;
40012;SDS011;37387;42.672;23.334;2023-04-01T05:14:46;12.3;;;6.0;;
40012;SDS011;37387;42.672;23.334;2023-04-01T05:15:46;13.6;;;9.1;;
40012;SDS011;37387;42.672;23.334;2023-04-01T05:17:46;17.8;;;75.5;;
40012;SDS011;37387;42.672;23.334;2023-04-01T05:18:47;9.4;;;5.6;;
40012;SDS011;37387;42.672;23.334;2023-04-01T05:19:46;9.4;;;6.7;;
40012;SDS011;37387;42.672;23.334;2023-04-01T05:20:46;12.1;;;5.9;;
40012;SDS011;37387;42.672;23.334;2023-04-01T05:21:46;13.8;;;6.4;;
40012;SDS011;37387;42.672;23.334;2023-04-01T05:22:46;13.8;;;5.1;;
40012;SDS011;37387;42.672;23.334;2023-04-01T05:23:46;9.9;;;5.7;;
40012;SDS011;37387;42.672;23.334;2023-04-01T05:24:46;12.6;;;5.8;;
40012;SDS011;37387;42.672;23.334;2023-04-01T05:25:46;15.8;;;7.7;;
40012;SDS011;37387;42.672;23.334;2023-04-01T05:26:46;14.3;;;5.6;;
40012;SDS011;37387;42.672;23.334;2023-04-01T05:27:46;12.7;;;6.0;;
40012;SDS011;37387;42.672;23.334;2023-04-01T05:28:46;10.8;;;4.8;;
40012;SDS011;37387;42.672;23.334;2023-04-01T05:30:46;11.0;;;4.4;;
40012;SDS011;37387;42.672;23.334;2023-04-01T05:31:46;12.2;;;5.2;;
40012;SDS011;37387;42.672;23.334;2023-04-01T05:33:46;12.1;;;4.8;;
40012;SDS011;37387;42.672;23.334;2023-04-01T05:34:46;12.1;;;4.6;;
40012;SDS011;37387;42.672;23.334;2023-04-01T05:35:46;11.2;;;5.8;;
40012;SDS011;37387;42.672;23.334;2023-04-01T05:36:46;10.5;;;5.2;;
40012;SDS011;37387;42.672;23.334;2023-04-01T05:37:46;10.5;;;4.8;;
40012;SDS011;37387;42.672;23.334;2023-04-01T05:39:46;13.2;;;4.1;;
40012;SDS011;37387;42.672;23.334;2023-04-01T05:40:46;10.5;;;4.2;;
40012;SDS011;37387;42.672;23.334;2023-04-01T05:42:46;11.0;;;3.9;;
40012;SDS011;37387;42.672;23.334;2023-04-01T05:43:46;8.4;;;3.8;;
40012;SDS011;37387;42.672;23.334;2023-04-01T05:44:46;8.5;;;4.2;;
40012;SDS011;37387;42.672;23.334;2023-04-01T05:45:46;9.3;;;4.3;;
40012;SDS011;37387;42.672;23.334;2023-04-01T05:46:46;8.6;;;3.8;;
40012;SDS011;37387;42.672;23.334;2023-04-01T05:48:46;9.9;;;4.1;;
40012;SDS011;37387;42.672;23.334;2023-04-01T05:49:46;8.2;;;4.2;;
40012;SDS011;37387;42.672;23.334;2023-04-01T05:50:46;6.4;;;3.5;;
40012;SDS011;37387;42.672;23.334;2023-04-01T05:51:46;7.2;;;3.8;;
40012;SDS011;37387;42.672;23.334;2023-04-01T05:52:46;12.1;;;5.7;;
40012;SDS011;37387;42.672;23.334;2023-04-01T05:53:46;15.2;;;9.1;;
40012;SDS011;37387;42.672;23.334;2023-04-01T05:54:46;15.2;;;6.0;;
40012;SDS011;37387;42.672;23.334;2023-04-01T05:55:46;11.8;;;21.2;;
40012;SDS011;37387;42.672;23.334;2023-04-01T05:56:46;13.9;;;4.5;;
40012;SDS011;37387;42.672;23.334;2023-04-01T05:57:46;13.9;;;5.7;;
40012;SDS011;37387;42.672;23.334;2023-04-01T05:58:47;12.7;;;5.5;;
40012;SDS011;37387;42.672;23.334;2023-04-01T05:59:47;10.0;;;2.9;;
40012;SDS011;37387;42.672;23.334;2023-04-01T06:00:47;8.5;;;3.2;;
40012;SDS011;37387;42.672;23.334;2023-04-01T06:01:47;7.4;;;3.7;;
40012;SDS011;37387;42.672;23.334;2023-04-01T06:02:47;7.3;;;2.7;;
40012;SDS011;37387;42.672;23.334;2023-04-01T06:03:47;10.9;;;2.9;;
40012;SDS011;37387;42.672;23.334;2023-04-01T06:04:47;10.9;;;3.0;;
40012;SDS011;37387;42.672;23.334;2023-04-01T06:06:47;7.4;;;3.3;;
40012;SDS011;37387;42.672;23.334;2023-04-01T06:07:48;7.4;;;3.1;;
40012;SDS011;37387;42.672;23.334;2023-04-01T06:08:48;6.2;;;3.0;;
40012;SDS011;37387;42.672;23.334;2023-04-01T06:09:48;5.8;;;2.6;;
40012;SDS011;37387;42.672;23.334;2023-04-01T06:10:51;5.8;;;2.5;;
40012;SDS011;37387;42.672;23.334;2023-04-01T06:12:49;5.8;;;2.4;;
40012;SDS011;37387;42.672;23.334;2023-04-01T06:13:52;5.9;;;2.6;;
40012;SDS011;37387;42.672;23.334;2023-04-01T06:14:49;5.9;;;2.4;;
40012;SDS011;37387;42.672;23.334;2023-04-01T06:15:50;5.3;;;2.3;;
40012;SDS011;37387;42.672;23.334;2023-04-01T06:16:52;5.3;;;2.2;;
40012;SDS011;37387;42.672;23.334;2023-04-01T06:17:57;6.0;;;2.3;;
40012;SDS011;37387;42.672;23.334;2023-04-01T06:18:54;8.0;;;2.5;;
40012;SDS011;37387;42.672;23.334;2023-04-01T06:19:50;8.0;;;3.0;;
40012;SDS011;37387;42.672;23.334;2023-04-01T06:20:50;6.7;;;2.3;;
40012;SDS011;37387;42.672;23.334;2023-04-01T06:21:55;4.7;;;2.6;;
40012;SDS011;37387;42.672;23.334;2023-04-01T06:22:52;5.1;;;2.5;;
40012;SDS011;37387;42.672;23.334;2023-04-01T06:23:52;5.7;;;2.4;;
40012;SDS011;37387;42.672;23.334;2023-04-01T06:24:53;5.7;;;2.7;;
40012;SDS011;37387;42.672;23.334;2023-04-01T06:25:52;5.0;;;2.6;;
40012;SDS011;37387;42.672;23.334;2023-04-01T06:26:50;5.9;;;2.4;;
40012;SDS011;37387;42.672;23.334;2023-04-01T06:27:53;9.0;;;2.7;;
40012;SDS011;37387;42.672;23.334;2023-04-01T06:28:50;19.9;;;11.6;;
40012;SDS011;37387;42.672;23.334;2023-04-01T06:29:52;7.1;;;3.1;;
40012;SDS011;37387;42.672;23.334;2023-04-01T06:30:51;7.1;;;3.2;;
40012;SDS011;37387;42.672;23.334;2023-04-01T06:31:55;5.8;;;3.0;;
40012;SDS011;37387;42.672;23.334;2023-04-01T06:32:53;7.0;;;3.1;;
40012;SDS011;37387;42.672;23.334;2023-04-01T06:33:50;7.0;;;3.2;;
40012;SDS011;37387;42.672;23.334;2023-04-01T06:34:54;5.6;;;3.0;;
40012;SDS011;37387;42.672;23.334;2023-04-01T06:35:53;5.6;;;3.1;;
40012;SDS011;37387;42.672;23.334;2023-04-01T06:37:54;4.1;;;3.0;;
40012;SDS011;37387;42.672;23.334;2023-04-01T06:38:54;7.8;;;3.3;;